sensor_id;sensor_type;location;lat;lon;timestamp;pressure;altitude;pressure_sealevel;temperature;humidity
76011;BME280;64701;43.536;1.478;2023-04-25T00:00:21;99408.50;;;14.52;93.07
76011;BME280;64701;43.536;1.478;2023-04-25T00:02:46;99406.88;;;14.51;92.63
76011;BME280;64701;43.536;1.478;2023-04-25T00:05:11;99402.94;;;14.54;91.99
76011;BME280;64701;43.536;1.478;2023-04-25T00:07:37;99403.09;;;14.59;90.61
76011;BME280;64701;43.536;1.478;2023-04-25T00:10:03;99404.13;;;14.58;92.51
76011;BME280;64701;43.536;1.478;2023-04-25T00:12:28;99395.13;;;14.59;92.28
76011;BME280;64701;43.536;1.478;2023-04-25T00:14:54;99400.44;;;14.59;92.20
76011;BME280;64701;43.536;1.478;2023-04-25T00:17:21;99399.16;;;14.61;92.71
76011;BME280;64701;43.536;1.478;2023-04-25T00:19:47;99393.03;;;14.61;92.30
76011;BME280;64701;43.536;1.478;2023-04-25T00:22:13;99381.34;;;14.62;91.66
76011;BME280;64701;43.536;1.478;2023-04-25T00:24:38;99379.50;;;14.62;92.24
76011;BME280;64701;43.536;1.478;2023-04-25T00:27:03;99388.31;;;14.63;92.43
76011;BME280;64701;43.536;1.478;2023-04-25T00:29:29;99384.59;;;14.64;92.65
76011;BME280;64701;43.536;1.478;2023-04-25T00:31:54;99376.16;;;14.67;92.07
76011;BME280;64701;43.536;1.478;2023-04-25T00:34:19;99379.44;;;14.69;92.26
76011;BME280;64701;43.536;1.478;2023-04-25T00:36:45;99378.41;;;14.70;92.02
76011;BME280;64701;43.536;1.478;2023-04-25T00:39:11;99381.63;;;14.72;92.19
76011;BME280;64701;43.536;1.478;2023-04-25T00:41:36;99383.72;;;14.70;92.53
76011;BME280;64701;43.536;1.478;2023-04-25T00:44:02;99389.25;;;14.68;93.49
76011;BME280;64701;43.536;1.478;2023-04-25T00:46:28;99377.34;;;14.71;92.90
76011;BME280;64701;43.536;1.478;2023-04-25T00:48:53;99377.34;;;14.71;93.69
76011;BME280;64701;43.536;1.478;2023-04-25T00:51:19;99378.41;;;14.70;93.61
76011;BME280;64701;43.536;1.478;2023-04-25T00:53:46;99370.75;;;14.74;92.98
76011;BME280;64701;43.536;1.478;2023-04-25T00:56:11;99370.19;;;14.72;94.01
76011;BME280;64701;43.536;1.478;2023-04-25T00:58:37;99372.47;;;14.68;94.51
76011;BME280;64701;43.536;1.478;2023-04-25T01:01:03;99367.72;;;14.70;94.19
76011;BME280;64701;43.536;1.478;2023-04-25T01:03:28;99369.94;;;14.73;93.49
76011;BME280;64701;43.536;1.478;2023-04-25T01:05:55;99371.84;;;14.66;95.85
76011;BME280;64701;43.536;1.478;2023-04-25T01:08:22;99369.66;;;14.63;95.39
76011;BME280;64701;43.536;1.478;2023-04-25T01:10:48;99367.59;;;14.65;95.31
76011;BME280;64701;43.536;1.478;2023-04-25T01:13:13;99372.91;;;14.65;95.48
76011;BME280;64701;43.536;1.478;2023-04-25T01:15:39;99358.09;;;14.69;94.74
76011;BME280;64701;43.536;1.478;2023-04-25T01:18:05;99358.91;;;14.69;94.32
76011;BME280;64701;43.536;1.478;2023-04-25T01:20:31;99359.28;;;14.73;94.32
76011;BME280;64701;43.536;1.478;2023-04-25T01:22:57;99354.75;;;14.74;93.67
76011;BME280;64701;43.536;1.478;2023-04-25T01:25:22;99360.91;;;14.74;94.02
76011;BME280;64701;43.536;1.478;2023-04-25T01:27:48;99375.13;;;14.68;95.56
76011;BME280;64701;43.536;1.478;2023-04-25T01:30:13;99368.41;;;14.65;95.71
76011;BME280;64701;43.536;1.478;2023-04-25T01:32:39;99366.16;;;14.62;96.10
76011;BME280;64701;43.536;1.478;2023-04-25T01:35:06;99367.81;;;14.63;95.64
76011;BME280;64701;43.536;1.478;2023-04-25T01:37:44;99369.66;;;14.63;96.15
76011;BME280;64701;43.536;1.478;2023-04-25T01:40:10;99369.50;;;14.58;96.63
76011;BME280;64701;43.536;1.478;2023-04-25T01:42:37;99370.38;;;14.52;97.17
76011;BME280;64701;43.536;1.478;2023-04-25T01:45:03;99371.06;;;14.47;98.06
76011;BME280;64701;43.536;1.478;2023-04-25T01:47:28;99364.91;;;14.47;98.17
76011;BME280;64701;43.536;1.478;2023-04-25T01:49:54;99358.75;;;14.46;97.98
76011;BME280;64701;43.536;1.478;2023-04-25T01:52:19;99352.00;;;14.44;98.12
76011;BME280;64701;43.536;1.478;2023-04-25T01:54:45;99352.00;;;14.44;98.07
76011;BME280;64701;43.536;1.478;2023-04-25T01:57:11;99363.28;;;14.46;97.89
76011;BME280;64701;43.536;1.478;2023-04-25T01:59:36;99351.34;;;14.48;97.11
76011;BME280;64701;43.536;1.478;2023-04-25T02:02:02;99349.34;;;14.44;98.20
76011;BME280;64701;43.536;1.478;2023-04-25T02:04:29;99348.91;;;14.47;97.38
76011;BME280;64701;43.536;1.478;2023-04-25T02:06:54;99348.53;;;14.43;97.54
76011;BME280;64701;43.536;1.478;2023-04-25T02:09:19;99346.91;;;14.42;97.97
76011;BME280;64701;43.536;1.478;2023-04-25T02:11:45;99345.72;;;14.38;98.08
76011;BME280;64701;43.536;1.478;2023-04-25T02:14:10;99345.28;;;14.41;97.83
76011;BME280;64701;43.536;1.478;2023-04-25T02:16:35;99342.38;;;14.43;97.79
76011;BME280;64701;43.536;1.478;2023-04-25T02:19:01;99345.31;;;14.35;98.38
76011;BME280;64701;43.536;1.478;2023-04-25T02:21:26;99339.38;;;14.32;98.95
76011;BME280;64701;43.536;1.478;2023-04-25T02:23:51;99334.25;;;14.38;98.48
76011;BME280;64701;43.536;1.478;2023-04-25T02:26:17;99340.19;;;14.40;98.15
76011;BME280;64701;43.536;1.478;2023-04-25T02:28:42;99326.84;;;14.40;98.16
76011;BME280;64701;43.536;1.478;2023-04-25T02:31:08;99335.25;;;14.37;98.66
76011;BME280;64701;43.536;1.478;2023-04-25T02:33:33;99334.66;;;14.35;98.64
76011;BME280;64701;43.536;1.478;2023-04-25T02:35:58;99330.59;;;14.32;98.73
76011;BME280;64701;43.536;1.478;2023-04-25T02:38:24;99332.66;;;14.30;98.98
76011;BME280;64701;43.536;1.478;2023-04-25T02:40:49;99335.91;;;14.32;98.43
76011;BME280;64701;43.536;1.478;2023-04-25T02:43:14;99339.59;;;14.31;98.42
76011;BME280;64701;43.536;1.478;2023-04-25T02:45:41;99331.03;;;14.29;97.90
76011;BME280;64701;43.536;1.478;2023-04-25T02:48:06;99339.84;;;14.29;97.83
76011;BME280;64701;43.536;1.478;2023-04-25T02:50:31;99331.03;;;14.29;98.06
76011;BME280;64701;43.536;1.478;2023-04-25T02:52:56;99338.78;;;14.30;97.97
76011;BME280;64701;43.536;1.478;2023-04-25T02:55:22;99335.81;;;14.20;98.90
76011;BME280;64701;43.536;1.478;2023-04-25T02:57:47;99333.75;;;14.22;98.73
76011;BME280;64701;43.536;1.478;2023-04-25T03:00:12;99335.97;;;14.25;98.35
76011;BME280;64701;43.536;1.478;2023-04-25T03:02:39;99337.81;;;14.25;98.23
76011;BME280;64701;43.536;1.478;2023-04-25T03:05:04;99331.03;;;14.29;97.68
76011;BME280;64701;43.536;1.478;2023-04-25T03:07:30;99328.13;;;14.30;97.80
76011;BME280;64701;43.536;1.478;2023-04-25T03:09:55;99335.56;;;14.28;97.84
76011;BME280;64701;43.536;1.478;2023-04-25T03:12:21;99333.47;;;14.30;97.90
76011;BME280;64701;43.536;1.478;2023-04-25T03:14:46;99337.19;;;14.29;97.91
76011;BME280;64701;43.536;1.478;2023-04-25T03:17:12;99333.03;;;14.34;97.88
76011;BME280;64701;43.536;1.478;2023-04-25T03:19:37;99333.47;;;14.30;98.37
76011;BME280;64701;43.536;1.478;2023-04-25T03:22:02;99325.72;;;14.29;98.81
76011;BME280;64701;43.536;1.478;2023-04-25T03:24:27;99332.22;;;14.33;98.14
76011;BME280;64701;43.536;1.478;2023-04-25T03:26:53;99326.06;;;14.32;98.44
76011;BME280;64701;43.536;1.478;2023-04-25T03:29:18;99319.56;;;14.28;99.33
76011;BME280;64701;43.536;1.478;2023-04-25T03:31:43;99320.38;;;14.29;99.54
76011;BME280;64701;43.536;1.478;2023-04-25T03:34:09;99327.41;;;14.23;99.95
76011;BME280;64701;43.536;1.478;2023-04-25T03:36:34;99322.50;;;14.20;100.00
76011;BME280;64701;43.536;1.478;2023-04-25T03:39:00;99320.28;;;14.17;100.00
76011;BME280;64701;43.536;1.478;2023-04-25T03:41:25;99319.09;;;14.13;100.00
76011;BME280;64701;43.536;1.478;2023-04-25T03:43:50;99319.69;;;14.15;100.00
76011;BME280;64701;43.536;1.478;2023-04-25T03:46:16;99316.56;;;14.18;100.00
76011;BME280;64701;43.536;1.478;2023-04-25T03:48:41;99317.56;;;14.24;99.63
76011;BME280;64701;43.536;1.478;2023-04-25T03:51:06;99317.13;;;14.27;99.48
76011;BME280;64701;43.536;1.478;2023-04-25T03:53:31;99308.91;;;14.28;98.89
76011;BME280;64701;43.536;1.478;2023-04-25T03:55:57;99314.66;;;14.25;99.46
76011;BME280;64701;43.536;1.478;2023-04-25T03:58:22;99313.63;;;14.26;99.43
76011;BME280;64701;43.536;1.478;2023-04-25T04:00:49;99311.78;;;14.27;99.46
76011;BME280;64701;43.536;1.478;2023-04-25T04:03:14;99313.78;;;14.31;98.45
76011;BME280;64701;43.536;1.478;2023-04-25T04:05:40;99308.25;;;14.33;98.43
76011;BME280;64701;43.536;1.478;2023-04-25T04:08:05;99308.59;;;14.37;98.21
76011;BME280;64701;43.536;1.478;2023-04-25T04:10:31;99309.66;;;14.36;98.45
76011;BME280;64701;43.536;1.478;2023-04-25T04:12:56;99307.00;;;14.36;98.44
76011;BME280;64701;43.536;1.478;2023-04-25T04:15:21;99297.22;;;14.29;99.33
76011;BME280;64701;43.536;1.478;2023-04-25T04:17:47;99304.16;;;14.30;99.30
76011;BME280;64701;43.536;1.478;2023-04-25T04:20:13;99290.50;;;14.27;99.89
76011;BME280;64701;43.536;1.478;2023-04-25T04:22:38;99287.59;;;14.28;99.48
76011;BME280;64701;43.536;1.478;2023-04-25T04:25:04;99295.34;;;14.30;99.12
76011;BME280;64701;43.536;1.478;2023-04-25T04:27:32;99289.25;;;14.29;99.22
76011;BME280;64701;43.536;1.478;2023-04-25T04:29:57;99292.47;;;14.31;99.09
76011;BME280;64701;43.536;1.478;2023-04-25T04:32:23;99294.72;;;14.35;98.74
76011;BME280;64701;43.536;1.478;2023-04-25T04:34:48;99293.28;;;14.32;99.18
76011;BME280;64701;43.536;1.478;2023-04-25T04:37:14;99295.53;;;14.35;98.75
76011;BME280;64701;43.536;1.478;2023-04-25T04:39:39;99285.69;;;14.36;98.43
76011;BME280;64701;43.536;1.478;2023-04-25T04:42:05;99289.97;;;14.37;98.61
76011;BME280;64701;43.536;1.478;2023-04-25T04:44:30;99284.63;;;14.37;98.70
76011;BME280;64701;43.536;1.478;2023-04-25T04:46:59;99290.59;;;14.39;98.31
76011;BME280;64701;43.536;1.478;2023-04-25T04:49:24;99285.28;;;14.39;97.72
76011;BME280;64701;43.536;1.478;2023-04-25T04:51:50;99285.41;;;14.44;97.16
76011;BME280;64701;43.536;1.478;2023-04-25T04:54:15;99289.56;;;14.40;97.95
76011;BME280;64701;43.536;1.478;2023-04-25T04:56:40;99294.91;;;14.40;97.91
76011;BME280;64701;43.536;1.478;2023-04-25T04:59:06;99292.22;;;14.40;98.09
76011;BME280;64701;43.536;1.478;2023-04-25T05:01:32;99280.53;;;14.41;98.03
76011;BME280;64701;43.536;1.478;2023-04-25T05:03:57;99287.88;;;14.45;97.30
76011;BME280;64701;43.536;1.478;2023-04-25T05:06:26;99279.66;;;14.47;97.24
76011;BME280;64701;43.536;1.478;2023-04-25T05:08:51;99282.75;;;14.44;98.27
76011;BME280;64701;43.536;1.478;2023-04-25T05:11:17;99288.75;;;14.39;98.99
76011;BME280;64701;43.536;1.478;2023-04-25T05:13:43;99294.44;;;14.43;98.87
76011;BME280;64701;43.536;1.478;2023-04-25T05:16:08;99296.06;;;14.44;99.00
76011;BME280;64701;43.536;1.478;2023-04-25T05:18:33;99289.09;;;14.43;99.02
76011;BME280;64701;43.536;1.478;2023-04-25T05:20:58;99294.81;;;14.46;98.52
76011;BME280;64701;43.536;1.478;2023-04-25T05:23:24;99285.81;;;14.47;99.07
76011;BME280;64701;43.536;1.478;2023-04-25T05:25:49;99283.34;;;14.46;99.71
76011;BME280;64701;43.536;1.478;2023-04-25T05:28:15;99281.66;;;14.51;99.19
76011;BME280;64701;43.536;1.478;2023-04-25T05:30:40;99291.63;;;14.56;98.18
76011;BME280;64701;43.536;1.478;2023-04-25T05:33:05;99296.28;;;14.60;97.43
76011;BME280;64701;43.536;1.478;2023-04-25T05:35:31;99300.00;;;14.59;98.30
76011;BME280;64701;43.536;1.478;2023-04-25T05:37:57;99302.44;;;14.61;97.69
76011;BME280;64701;43.536;1.478;2023-04-25T05:40:22;99305.09;;;14.61;97.71
76011;BME280;64701;43.536;1.478;2023-04-25T05:42:47;99299.75;;;14.61;98.34
76011;BME280;64701;43.536;1.478;2023-04-25T05:45:13;99304.53;;;14.59;98.97
76011;BME280;64701;43.536;1.478;2023-04-25T05:47:38;99297.56;;;14.58;99.16
76011;BME280;64701;43.536;1.478;2023-04-25T05:50:03;99298.94;;;14.60;98.64
76011;BME280;64701;43.536;1.478;2023-04-25T05:52:29;99295.03;;;14.63;98.68
76011;BME280;64701;43.536;1.478;2023-04-25T05:54:54;99295.03;;;14.63;99.03
76011;BME280;64701;43.536;1.478;2023-04-25T05:57:21;99304.06;;;14.62;99.55
76011;BME280;64701;43.536;1.478;2023-04-25T05:59:46;99299.91;;;14.66;99.39
76011;BME280;64701;43.536;1.478;2023-04-25T06:02:12;99299.53;;;14.62;100.00
76011;BME280;64701;43.536;1.478;2023-04-25T06:04:37;99301.41;;;14.62;100.00
76011;BME280;64701;43.536;1.478;2023-04-25T06:07:02;99307.13;;;14.65;99.76
76011;BME280;64701;43.536;1.478;2023-04-25T06:09:27;99314.28;;;14.65;100.00
76011;BME280;64701;43.536;1.478;2023-04-25T06:11:53;99310.56;;;14.66;100.00
76011;BME280;64701;43.536;1.478;2023-04-25T06:14:18;99310.22;;;14.62;100.00
76011;BME280;64701;43.536;1.478;2023-04-25T06:16:43;99303.38;;;14.66;100.00
76011;BME280;64701;43.536;1.478;2023-04-25T06:19:09;99307.13;;;14.65;100.00
76011;BME280;64701;43.536;1.478;2023-04-25T06:21:34;99304.19;;;14.67;100.00
76011;BME280;64701;43.536;1.478;2023-04-25T06:23:59;99295.31;;;14.73;99.15
76011;BME280;64701;43.536;1.478;2023-04-25T06:26:24;99303.91;;;14.75;99.48
76011;BME280;64701;43.536;1.478;2023-04-25T06:28:50;99303.44;;;14.78;99.25
76011;BME280;64701;43.536;1.478;2023-04-25T06:31:15;99299.63;;;14.74;99.36
76011;BME280;64701;43.536;1.478;2023-04-25T06:33:40;99298.94;;;14.79;99.25
76011;BME280;64701;43.536;1.478;2023-04-25T06:36:06;99303.38;;;14.85;98.21
76011;BME280;64701;43.536;1.478;2023-04-25T06:38:31;99295.50;;;14.90;98.11
76011;BME280;64701;43.536;1.478;2023-04-25T06:40:56;99293.81;;;14.95;98.09
76011;BME280;64701;43.536;1.478;2023-04-25T06:43:21;99294.94;;;14.88;98.35
76011;BME280;64701;43.536;1.478;2023-04-25T06:45:47;99291.38;;;14.94;98.76
76011;BME280;64701;43.536;1.478;2023-04-25T06:48:12;99289.06;;;14.97;98.22
76011;BME280;64701;43.536;1.478;2023-04-25T06:50:37;99287.13;;;15.04;98.01
76011;BME280;64701;43.536;1.478;2023-04-25T06:53:03;99281.31;;;15.07;98.17
76011;BME280;64701;43.536;1.478;2023-04-25T06:55:28;99282.94;;;15.08;98.17
76011;BME280;64701;43.536;1.478;2023-04-25T06:57:53;99284.72;;;15.15;97.52
76011;BME280;64701;43.536;1.478;2023-04-25T07:00:19;99291.09;;;15.13;98.21
76011;BME280;64701;43.536;1.478;2023-04-25T07:02:44;99296.41;;;15.13;97.91
76011;BME280;64701;43.536;1.478;2023-04-25T07:05:10;99301.31;;;15.17;97.59
76011;BME280;64701;43.536;1.478;2023-04-25T07:07:35;99294.44;;;15.09;97.81
76011;BME280;64701;43.536;1.478;2023-04-25T07:10:00;99303.84;;;15.11;97.83
76011;BME280;64701;43.536;1.478;2023-04-25T07:12:26;99297.69;;;15.11;98.18
76011;BME280;64701;43.536;1.478;2023-04-25T07:14:51;99298.94;;;15.08;98.03
76011;BME280;64701;43.536;1.478;2023-04-25T07:17:16;99305.91;;;15.09;98.54
76011;BME280;64701;43.536;1.478;2023-04-25T07:19:42;99300.59;;;15.09;98.67
76011;BME280;64701;43.536;1.478;2023-04-25T07:22:08;99307.56;;;15.10;98.40
76011;BME280;64701;43.536;1.478;2023-04-25T07:24:33;99312.28;;;15.08;98.85
76011;BME280;64701;43.536;1.478;2023-04-25T07:26:59;99312.66;;;15.12;98.26
76011;BME280;64701;43.536;1.478;2023-04-25T07:29:24;99315.25;;;15.19;98.34
76011;BME280;64701;43.536;1.478;2023-04-25T07:31:49;99321.16;;;15.21;98.07
76011;BME280;64701;43.536;1.478;2023-04-25T07:34:14;99325.00;;;15.25;97.79
76011;BME280;64701;43.536;1.478;2023-04-25T07:36:40;99322.09;;;15.26;97.62
76011;BME280;64701;43.536;1.478;2023-04-25T07:39:06;99325.66;;;15.20;98.20
76011;BME280;64701;43.536;1.478;2023-04-25T07:41:31;99331.72;;;15.27;97.95
76011;BME280;64701;43.536;1.478;2023-04-25T07:43:56;99337.44;;;15.31;97.97
76011;BME280;64701;43.536;1.478;2023-04-25T07:46:22;99325.81;;;15.25;98.35
76011;BME280;64701;43.536;1.478;2023-04-25T07:48:47;99341.84;;;15.25;98.33
76011;BME280;64701;43.536;1.478;2023-04-25T07:51:12;99341.16;;;15.30;97.86
76011;BME280;64701;43.536;1.478;2023-04-25T07:53:37;99348.63;;;15.21;96.64
76011;BME280;64701;43.536;1.478;2023-04-25T07:56:03;99352.97;;;15.04;94.89
76011;BME280;64701;43.536;1.478;2023-04-25T07:58:29;99361.25;;;14.96;94.08
76011;BME280;64701;43.536;1.478;2023-04-25T08:00:54;99363.56;;;14.92;93.69
76011;BME280;64701;43.536;1.478;2023-04-25T08:03:19;99367.41;;;14.78;92.75
76011;BME280;64701;43.536;1.478;2023-04-25T08:05:46;99367.41;;;14.78;92.96
76011;BME280;64701;43.536;1.478;2023-04-25T08:08:11;99371.50;;;14.81;93.19
76011;BME280;64701;43.536;1.478;2023-04-25T08:10:36;99389.19;;;14.75;92.71
76011;BME280;64701;43.536;1.478;2023-04-25T08:13:02;99384.28;;;14.72;92.68
76011;BME280;64701;43.536;1.478;2023-04-25T08:15:27;99388.44;;;14.68;92.27
76011;BME280;64701;43.536;1.478;2023-04-25T08:17:52;99388.44;;;14.68;92.24
76011;BME280;64701;43.536;1.478;2023-04-25T08:20:18;99389.34;;;14.62;91.87
76011;BME280;64701;43.536;1.478;2023-04-25T08:22:43;99376.75;;;14.51;92.18
76011;BME280;64701;43.536;1.478;2023-04-25T08:25:08;99380.38;;;14.56;92.77
76011;BME280;64701;43.536;1.478;2023-04-25T08:27:34;99384.38;;;14.47;92.79
76011;BME280;64701;43.536;1.478;2023-04-25T08:30:00;99379.41;;;14.51;92.62
76011;BME280;64701;43.536;1.478;2023-04-25T08:32:25;99391.09;;;14.50;92.88
76011;BME280;64701;43.536;1.478;2023-04-25T08:34:50;99395.38;;;14.51;92.90
76011;BME280;64701;43.536;1.478;2023-04-25T08:37:19;99399.22;;;14.55;92.73
76011;BME280;64701;43.536;1.478;2023-04-25T08:39:44;99414.78;;;14.58;92.95
76011;BME280;64701;43.536;1.478;2023-04-25T08:42:10;99415.69;;;14.52;92.73
76011;BME280;64701;43.536;1.478;2023-04-25T08:44:36;99426.34;;;14.52;92.53
76011;BME280;64701;43.536;1.478;2023-04-25T08:47:03;99430.03;;;14.51;92.09
76011;BME280;64701;43.536;1.478;2023-04-25T08:49:30;99441.13;;;14.48;92.33
76011;BME280;64701;43.536;1.478;2023-04-25T08:51:56;99441.56;;;14.45;91.76
76011;BME280;64701;43.536;1.478;2023-04-25T08:54:24;99444.44;;;14.37;92.16
76011;BME280;64701;43.536;1.478;2023-04-25T08:56:53;99454.72;;;14.40;92.21
76011;BME280;64701;43.536;1.478;2023-04-25T08:59:18;99461.28;;;14.37;92.32
76011;BME280;64701;43.536;1.478;2023-04-25T09:01:44;99461.69;;;14.41;92.45
76011;BME280;64701;43.536;1.478;2023-04-25T09:04:11;99463.91;;;14.44;92.10
76011;BME280;64701;43.536;1.478;2023-04-25T09:06:37;99464.94;;;14.43;92.68
76011;BME280;64701;43.536;1.478;2023-04-25T09:09:03;99472.09;;;14.42;91.94
76011;BME280;64701;43.536;1.478;2023-04-25T09:11:29;99472.72;;;14.44;92.51
76011;BME280;64701;43.536;1.478;2023-04-25T09:14:09;99475.78;;;14.48;92.56
76011;BME280;64701;43.536;1.478;2023-04-25T09:16:35;99478.44;;;14.48;92.03
76011;BME280;64701;43.536;1.478;2023-04-25T09:19:00;99480.03;;;14.49;93.05
76011;BME280;64701;43.536;1.478;2023-04-25T09:21:26;99483.91;;;14.53;92.63
76011;BME280;64701;43.536;1.478;2023-04-25T09:23:52;99483.25;;;14.57;92.09
76011;BME280;64701;43.536;1.478;2023-04-25T09:26:18;99488.38;;;14.59;92.10
76011;BME280;64701;43.536;1.478;2023-04-25T09:28:44;99499.47;;;14.56;91.71
76011;BME280;64701;43.536;1.478;2023-04-25T09:31:10;99493.09;;;14.57;91.38
76011;BME280;64701;43.536;1.478;2023-04-25T09:33:40;99495.91;;;14.62;91.21
76011;BME280;64701;43.536;1.478;2023-04-25T09:36:09;99494.44;;;14.66;90.40
76011;BME280;64701;43.536;1.478;2023-04-25T09:38:45;99502.38;;;14.73;90.68
76011;BME280;64701;43.536;1.478;2023-04-25T09:41:11;99509.75;;;14.77;90.85
76011;BME280;64701;43.536;1.478;2023-04-25T09:43:37;99513.28;;;14.71;91.53
76011;BME280;64701;43.536;1.478;2023-04-25T09:46:04;99517.94;;;14.76;91.46
76011;BME280;64701;43.536;1.478;2023-04-25T09:48:32;99513.00;;;14.79;91.42
76011;BME280;64701;43.536;1.478;2023-04-25T09:53:38;99507.22;;;14.82;90.28
76011;BME280;64701;43.536;1.478;2023-04-25T09:56:04;99506.22;;;14.83;90.38
76011;BME280;64701;43.536;1.478;2023-04-25T09:58:31;99509.44;;;14.85;90.11
76011;BME280;64701;43.536;1.478;2023-04-25T10:00:59;99513.69;;;14.93;90.51
76011;BME280;64701;43.536;1.478;2023-04-25T10:03:25;99504.44;;;14.95;90.21
76011;BME280;64701;43.536;1.478;2023-04-25T10:05:51;99510.97;;;14.99;89.90
76011;BME280;64701;43.536;1.478;2023-04-25T10:08:17;99515.63;;;15.04;89.91
76011;BME280;64701;43.536;1.478;2023-04-25T10:10:43;99512.44;;;14.95;89.17
76011;BME280;64701;43.536;1.478;2023-04-25T10:13:09;99517.78;;;14.95;89.43
76011;BME280;64701;43.536;1.478;2023-04-25T10:15:35;99513.16;;;15.02;89.56
76011;BME280;64701;43.536;1.478;2023-04-25T10:18:03;99520.44;;;14.95;89.73
76011;BME280;64701;43.536;1.478;2023-04-25T10:20:30;99513.69;;;14.93;90.22
76011;BME280;64701;43.536;1.478;2023-04-25T10:22:57;99513.31;;;14.89;90.33
76011;BME280;64701;43.536;1.478;2023-04-25T10:25:23;99514.50;;;14.93;90.50
76011;BME280;64701;43.536;1.478;2023-04-25T10:27:52;99516.16;;;14.94;90.02
76011;BME280;64701;43.536;1.478;2023-04-25T10:30:17;99510.91;;;15.06;89.79
76011;BME280;64701;43.536;1.478;2023-04-25T10:32:43;99515.94;;;15.14;89.49
76011;BME280;64701;43.536;1.478;2023-04-25T10:35:12;99517.06;;;15.25;89.51
76011;BME280;64701;43.536;1.478;2023-04-25T10:37:42;99507.22;;;15.25;89.17
76011;BME280;64701;43.536;1.478;2023-04-25T10:40:21;99501.06;;;15.25;88.28
76011;BME280;64701;43.536;1.478;2023-04-25T10:42:46;99496.53;;;15.25;88.21
76011;BME280;64701;43.536;1.478;2023-04-25T10:45:11;99494.84;;;15.31;88.33
76011;BME280;64701;43.536;1.478;2023-04-25T10:47:42;99494.84;;;15.31;87.38
76011;BME280;64701;43.536;1.478;2023-04-25T10:50:09;99500.59;;;15.28;87.26
76011;BME280;64701;43.536;1.478;2023-04-25T10:52:34;99492.09;;;15.19;87.30
76011;BME280;64701;43.536;1.478;2023-04-25T10:55:00;99498.22;;;15.20;87.68
76011;BME280;64701;43.536;1.478;2023-04-25T11:00:14;99492.59;;;15.28;88.61
76011;BME280;64701;43.536;1.478;2023-04-25T11:02:40;99493.94;;;15.37;88.07
76011;BME280;64701;43.536;1.478;2023-04-25T11:05:06;99502.31;;;15.40;88.39
76011;BME280;64701;43.536;1.478;2023-04-25T11:07:34;99493.78;;;15.32;88.61
76011;BME280;64701;43.536;1.478;2023-04-25T11:10:02;99495.41;;;15.33;87.92
76011;BME280;64701;43.536;1.478;2023-04-25T11:12:29;99498.69;;;15.35;87.85
76011;BME280;64701;43.536;1.478;2023-04-25T11:15:02;99496.38;;;15.38;87.81
76011;BME280;64701;43.536;1.478;2023-04-25T11:17:28;99497.50;;;15.49;88.32
76011;BME280;64701;43.536;1.478;2023-04-25T11:19:54;99486.44;;;15.45;88.22
76011;BME280;64701;43.536;1.478;2023-04-25T11:22:20;99488.88;;;15.47;88.42
76011;BME280;64701;43.536;1.478;2023-04-25T11:24:46;99492.00;;;15.62;88.34
76011;BME280;64701;43.536;1.478;2023-04-25T11:27:11;99478.50;;;15.75;88.85
76011;BME280;64701;43.536;1.478;2023-04-25T11:29:37;99488.88;;;15.83;87.17
76011;BME280;64701;43.536;1.478;2023-04-25T11:32:02;99478.69;;;16.04;88.09
76011;BME280;64701;43.536;1.478;2023-04-25T11:34:28;99471.66;;;16.21;87.52
76011;BME280;64701;43.536;1.478;2023-04-25T11:36:55;99471.34;;;16.29;86.44
76011;BME280;64701;43.536;1.478;2023-04-25T11:39:21;99466.69;;;16.24;84.31
76011;BME280;64701;43.536;1.478;2023-04-25T11:41:46;99474.69;;;16.24;84.72
76011;BME280;64701;43.536;1.478;2023-04-25T11:44:12;99472.25;;;16.23;85.62
76011;BME280;64701;43.536;1.478;2023-04-25T11:46:40;99472.97;;;16.30;84.85
76011;BME280;64701;43.536;1.478;2023-04-25T11:49:05;99461.69;;;16.40;84.91
76011;BME280;64701;43.536;1.478;2023-04-25T11:51:37;99461.16;;;16.49;84.08
76011;BME280;64701;43.536;1.478;2023-04-25T11:54:02;99461.25;;;16.54;82.96
76011;BME280;64701;43.536;1.478;2023-04-25T11:56:28;99455.81;;;16.49;82.17
76011;BME280;64701;43.536;1.478;2023-04-25T11:58:53;99453.03;;;16.56;82.98
76011;BME280;64701;43.536;1.478;2023-04-25T12:01:26;99452.53;;;16.59;83.70
76011;BME280;64701;43.536;1.478;2023-04-25T12:03:51;99452.56;;;16.70;83.74
76011;BME280;64701;43.536;1.478;2023-04-25T12:06:17;99454.22;;;16.71;83.10
76011;BME280;64701;43.536;1.478;2023-04-25T12:08:58;99447.44;;;16.69;82.01
76011;BME280;64701;43.536;1.478;2023-04-25T12:11:23;99452.13;;;16.73;82.46
76011;BME280;64701;43.536;1.478;2023-04-25T12:13:51;99453.72;;;16.74;81.89
76011;BME280;64701;43.536;1.478;2023-04-25T12:16:17;99454.81;;;16.73;81.54
76011;BME280;64701;43.536;1.478;2023-04-25T12:18:42;99450.50;;;16.72;81.34
76011;BME280;64701;43.536;1.478;2023-04-25T12:21:07;99444.56;;;16.70;82.33
76011;BME280;64701;43.536;1.478;2023-04-25T12:23:34;99453.28;;;16.78;83.24
76011;BME280;64701;43.536;1.478;2023-04-25T12:26:03;99449.78;;;16.77;82.67
76011;BME280;64701;43.536;1.478;2023-04-25T12:28:28;99447.94;;;16.78;82.30
76011;BME280;64701;43.536;1.478;2023-04-25T12:33:27;99449.06;;;16.82;83.16
76011;BME280;64701;43.536;1.478;2023-04-25T12:35:53;99447.00;;;16.84;83.30
76011;BME280;64701;43.536;1.478;2023-04-25T12:38:25;99453.25;;;16.89;84.03
76011;BME280;64701;43.536;1.478;2023-04-25T12:40:50;99454.44;;;16.82;84.32
76011;BME280;64701;43.536;1.478;2023-04-25T12:43:16;99441.75;;;16.77;83.09
76011;BME280;64701;43.536;1.478;2023-04-25T12:45:41;99457.00;;;16.77;83.35
76011;BME280;64701;43.536;1.478;2023-04-25T12:48:07;99460.72;;;16.76;84.04
76011;BME280;64701;43.536;1.478;2023-04-25T12:50:32;99459.56;;;16.71;83.30
76011;BME280;64701;43.536;1.478;2023-04-25T12:52:57;99467.91;;;16.63;83.53
76011;BME280;64701;43.536;1.478;2023-04-25T12:55:22;99465.72;;;16.60;83.94
76011;BME280;64701;43.536;1.478;2023-04-25T12:57:48;99469.28;;;16.54;84.26
76011;BME280;64701;43.536;1.478;2023-04-25T13:00:13;99469.72;;;16.51;84.27